QTR7W HECA-OTHH
Flight info
| Callsign | QTR7W |
|---|---|
| Flight time | 2h 22m |
| Altitude | 41000 |
| Route | CVO L677 MENLI N697 SISIK W976 DATOK L550 KARIK B411 DEESA Y415 TAMRO N318 HAYYA |
| Aircraft | A359/H-SDE2E3GHIJ3J4J5LM1ORWXY/LB1D1 |
Departure
| Time | 2026-05-05 14:30 |
|---|---|
| Airport | Cairo International Airport (HECA) |
Arrival
| Time | 2026-05-05 16:52 |
|---|---|
| Airport | Hamad International Airport (OTHH) |
| Time | Latitude | Longitude | Altitude | Speed | Heading |
|---|---|---|---|---|---|
| 2026-05-05 13:53 | 30.11094 | 31.40164 | 381 ft | 0 kts | 17° |
| 2026-05-05 14:21 | 30.11082 | 31.40160 | 380 ft | 4 kts | 17° |
| 2026-05-05 14:21 | 30.11060 | 31.40152 | 380 ft | 2 kts | 17° |
| 2026-05-05 14:21 | 30.11036 | 31.40144 | 380 ft | 4 kts | 13° |
| 2026-05-05 14:22 | 30.11010 | 31.40140 | 380 ft | 4 kts | 346° |
| 2026-05-05 14:22 | 30.10991 | 31.40149 | 380 ft | 4 kts | 338° |
| 2026-05-05 14:22 | 30.10966 | 31.40155 | 380 ft | 4 kts | 9° |
| 2026-05-05 14:22 | 30.10941 | 31.40146 | 380 ft | 4 kts | 22° |
| 2026-05-05 14:23 | 30.10932 | 31.40142 | 380 ft | 4 kts | 17° |
| 2026-05-05 14:25 | 30.10959 | 31.40154 | 380 ft | 6 kts | 28° |
| 2026-05-05 14:26 | 30.10983 | 31.40210 | 380 ft | 10 kts | 85° |
| 2026-05-05 14:26 | 30.10967 | 31.40305 | 380 ft | 17 kts | 107° |
| 2026-05-05 14:26 | 30.10926 | 31.40438 | 380 ft | 14 kts | 124° |
| 2026-05-05 14:26 | 30.10850 | 31.40435 | 380 ft | 13 kts | 216° |
| 2026-05-05 14:27 | 30.10775 | 31.40344 | 380 ft | 17 kts | 228° |
| 2026-05-05 14:27 | 30.10678 | 31.40217 | 380 ft | 25 kts | 229° |
| 2026-05-05 14:27 | 30.10564 | 31.40065 | 380 ft | 26 kts | 229° |
| 2026-05-05 14:27 | 30.10446 | 31.39907 | 380 ft | 26 kts | 228° |
| 2026-05-05 14:28 | 30.10326 | 31.39749 | 380 ft | 27 kts | 229° |
| 2026-05-05 14:28 | 30.10205 | 31.39594 | 380 ft | 22 kts | 220° |
| 2026-05-05 14:28 | 30.10095 | 31.39626 | 380 ft | 18 kts | 140° |
| 2026-05-05 14:28 | 30.10010 | 31.39738 | 380 ft | 19 kts | 109° |
| 2026-05-05 14:29 | 30.10024 | 31.39897 | 377 ft | 22 kts | 61° |
| 2026-05-05 14:29 | 30.10068 | 31.39960 | 376 ft | 0 kts | 49° |
| 2026-05-05 14:29 | 30.10088 | 31.39985 | 377 ft | 19 kts | 49° |
| 2026-05-05 14:29 | 30.10331 | 31.40308 | 381 ft | 87 kts | 49° |
| 2026-05-05 14:30 | 30.10871 | 31.41022 | 378 ft | 147 kts | 49° |
| 2026-05-05 14:30 | 30.11610 | 31.42029 | 736 ft | 166 kts | 46° |
| 2026-05-05 14:30 | 30.12313 | 31.43013 | 1444 ft | 161 kts | 44° |
| 2026-05-05 14:30 | 30.13060 | 31.44080 | 1821 ft | 180 kts | 49° |
| 2026-05-05 14:31 | 30.13557 | 31.45483 | 2236 ft | 204 kts | 79° |
| 2026-05-05 14:31 | 30.13441 | 31.47238 | 2470 ft | 237 kts | 101° |
| 2026-05-05 14:31 | 30.12855 | 31.49139 | 2822 ft | 263 kts | 113° |
| 2026-05-05 14:31 | 30.11980 | 31.51082 | 3465 ft | 273 kts | 118° |
| 2026-05-05 14:32 | 30.11022 | 31.52984 | 4243 ft | 277 kts | 119° |
| 2026-05-05 14:32 | 30.10058 | 31.54898 | 4987 ft | 281 kts | 119° |
| 2026-05-05 14:32 | 30.09092 | 31.56892 | 5837 ft | 283 kts | 117° |
| 2026-05-05 14:32 | 30.08167 | 31.58891 | 6610 ft | 288 kts | 117° |
| 2026-05-05 14:33 | 30.07244 | 31.60960 | 7384 ft | 292 kts | 116° |
| 2026-05-05 14:33 | 30.06313 | 31.63097 | 8268 ft | 295 kts | 116° |
| 2026-05-05 14:33 | 30.05395 | 31.65223 | 9129 ft | 299 kts | 116° |
| 2026-05-05 14:33 | 30.04459 | 31.67397 | 9936 ft | 305 kts | 116° |
| 2026-05-05 14:34 | 30.03497 | 31.69626 | 10484 ft | 319 kts | 116° |
| 2026-05-05 14:34 | 30.02472 | 31.71997 | 10792 ft | 341 kts | 116° |
| 2026-05-05 14:34 | 30.01376 | 31.74522 | 11100 ft | 362 kts | 116° |
| 2026-05-05 14:34 | 30.00225 | 31.77167 | 11536 ft | 375 kts | 116° |
| 2026-05-05 14:35 | 29.99042 | 31.79885 | 12164 ft | 383 kts | 117° |
| 2026-05-05 14:35 | 29.97833 | 31.82658 | 12787 ft | 390 kts | 117° |
| 2026-05-05 14:35 | 29.96604 | 31.85475 | 13415 ft | 397 kts | 117° |
| 2026-05-05 14:35 | 29.95353 | 31.88340 | 14041 ft | 403 kts | 117° |
| 2026-05-05 14:36 | 29.94094 | 31.91222 | 14616 ft | 408 kts | 117° |
| 2026-05-05 14:36 | 29.92797 | 31.94188 | 15232 ft | 413 kts | 118° |
| 2026-05-05 14:36 | 29.91496 | 31.97161 | 15813 ft | 418 kts | 118° |
| 2026-05-05 14:36 | 29.90184 | 32.00159 | 16422 ft | 422 kts | 118° |
| 2026-05-05 14:37 | 29.88854 | 32.03195 | 17030 ft | 427 kts | 118° |
| 2026-05-05 14:37 | 29.87507 | 32.06265 | 17678 ft | 430 kts | 118° |
| 2026-05-05 14:37 | 29.86151 | 32.09357 | 18258 ft | 436 kts | 118° |
| 2026-05-05 14:37 | 29.84774 | 32.12492 | 18789 ft | 441 kts | 118° |
| 2026-05-05 14:38 | 29.83382 | 32.15660 | 19332 ft | 445 kts | 118° |
| 2026-05-05 14:38 | 29.81976 | 32.18858 | 19824 ft | 451 kts | 118° |
| 2026-05-05 14:38 | 29.80551 | 32.22093 | 20355 ft | 455 kts | 119° |
| 2026-05-05 14:38 | 29.79112 | 32.25359 | 20875 ft | 460 kts | 119° |
| 2026-05-05 14:39 | 29.77657 | 32.28660 | 21415 ft | 464 kts | 119° |
| 2026-05-05 14:39 | 29.76188 | 32.31987 | 21954 ft | 469 kts | 119° |
| 2026-05-05 14:39 | 29.74698 | 32.35361 | 22513 ft | 474 kts | 120° |
| 2026-05-05 14:39 | 29.73202 | 32.38744 | 23021 ft | 479 kts | 120° |
| 2026-05-05 14:40 | 29.71684 | 32.42176 | 23560 ft | 484 kts | 120° |
| 2026-05-05 14:40 | 29.70150 | 32.45639 | 24031 ft | 488 kts | 120° |
| 2026-05-05 14:40 | 29.68606 | 32.49123 | 24565 ft | 490 kts | 120° |
| 2026-05-05 14:40 | 29.67056 | 32.52617 | 25090 ft | 492 kts | 120° |
| 2026-05-05 14:41 | 29.65495 | 32.56134 | 25601 ft | 495 kts | 120° |
| 2026-05-05 14:41 | 29.63925 | 32.59668 | 26108 ft | 498 kts | 120° |
| 2026-05-05 14:41 | 29.62347 | 32.63224 | 26590 ft | 501 kts | 120° |
| 2026-05-05 14:41 | 29.61004 | 32.66941 | 27071 ft | 507 kts | 109° |
| 2026-05-05 14:42 | 29.60231 | 32.70910 | 27564 ft | 512 kts | 98° |
| 2026-05-05 14:42 | 29.59921 | 32.74987 | 28047 ft | 515 kts | 92° |
| 2026-05-05 14:42 | 29.59866 | 32.79114 | 28516 ft | 518 kts | 89° |
| 2026-05-05 14:42 | 29.59937 | 32.83265 | 28996 ft | 521 kts | 88° |
| 2026-05-05 14:43 | 29.60049 | 32.87440 | 29441 ft | 524 kts | 88° |
| 2026-05-05 14:43 | 29.60157 | 32.91639 | 29871 ft | 528 kts | 88° |
| 2026-05-05 14:43 | 29.60243 | 32.95863 | 30254 ft | 531 kts | 89° |
| 2026-05-05 14:43 | 29.60307 | 33.00119 | 30607 ft | 534 kts | 89° |
| 2026-05-05 14:44 | 29.60354 | 33.04398 | 30958 ft | 537 kts | 89° |
| 2026-05-05 14:44 | 29.60391 | 33.08701 | 31310 ft | 540 kts | 89° |
| 2026-05-05 14:44 | 29.60422 | 33.13027 | 31623 ft | 543 kts | 90° |
| 2026-05-05 14:44 | 29.60450 | 33.17376 | 31933 ft | 546 kts | 90° |
| 2026-05-05 14:45 | 29.60479 | 33.21751 | 32208 ft | 549 kts | 90° |
| 2026-05-05 14:45 | 29.60506 | 33.26150 | 32505 ft | 552 kts | 90° |
| 2026-05-05 14:45 | 29.60534 | 33.30560 | 32805 ft | 554 kts | 90° |
| 2026-05-05 14:45 | 29.60560 | 33.35003 | 33084 ft | 558 kts | 90° |
| 2026-05-05 14:46 | 29.60585 | 33.39472 | 33323 ft | 561 kts | 90° |
| 2026-05-05 14:46 | 29.60602 | 33.42446 | 33501 ft | 562 kts | 90° |
| 2026-05-05 14:46 | 29.60625 | 33.46948 | 33770 ft | 564 kts | 90° |
| 2026-05-05 14:46 | 29.60647 | 33.51465 | 34054 ft | 566 kts | 90° |
| 2026-05-05 14:47 | 29.60668 | 33.55984 | 34385 ft | 565 kts | 90° |
| 2026-05-05 14:47 | 29.60686 | 33.60486 | 34698 ft | 564 kts | 90° |
| 2026-05-05 14:47 | 29.60704 | 33.64996 | 34987 ft | 565 kts | 90° |
| 2026-05-05 14:47 | 29.60720 | 33.69508 | 35261 ft | 565 kts | 91° |
| 2026-05-05 14:48 | 29.60735 | 33.74021 | 35525 ft | 565 kts | 91° |
| 2026-05-05 14:48 | 29.60747 | 33.78545 | 35812 ft | 564 kts | 91° |
| 2026-05-05 14:48 | 29.60758 | 33.83044 | 36092 ft | 564 kts | 91° |
| 2026-05-05 14:48 | 29.60763 | 33.87553 | 36352 ft | 564 kts | 91° |
| 2026-05-05 14:49 | 29.60758 | 33.92062 | 36594 ft | 564 kts | 91° |
| 2026-05-05 14:49 | 29.60748 | 33.96573 | 36849 ft | 564 kts | 91° |
| 2026-05-05 14:49 | 29.60737 | 34.01074 | 37100 ft | 564 kts | 91° |
| 2026-05-05 14:49 | 29.60725 | 34.05584 | 37348 ft | 564 kts | 91° |
| 2026-05-05 14:50 | 29.60712 | 34.10091 | 37580 ft | 564 kts | 92° |
| 2026-05-05 14:50 | 29.60699 | 34.14603 | 37836 ft | 564 kts | 92° |
| 2026-05-05 14:50 | 29.60685 | 34.19100 | 38065 ft | 564 kts | 91° |
| 2026-05-05 14:50 | 29.60670 | 34.23552 | 38247 ft | 565 kts | 92° |
| 2026-05-05 14:51 | 29.60658 | 34.28129 | 38440 ft | 565 kts | 91° |
| 2026-05-05 14:51 | 29.60663 | 34.32646 | 38666 ft | 565 kts | 91° |
| 2026-05-05 14:51 | 29.60674 | 34.37160 | 38854 ft | 565 kts | 91° |
| 2026-05-05 14:51 | 29.60686 | 34.41675 | 39017 ft | 565 kts | 91° |
| 2026-05-05 14:52 | 29.60695 | 34.46180 | 39169 ft | 565 kts | 91° |
| 2026-05-05 14:52 | 29.60586 | 34.50688 | 39276 ft | 563 kts | 98° |
| 2026-05-05 14:52 | 29.59945 | 34.55100 | 39398 ft | 557 kts | 109° |
| 2026-05-05 14:52 | 29.58689 | 34.59276 | 39500 ft | 549 kts | 120° |
| 2026-05-05 14:53 | 29.56840 | 34.63066 | 39613 ft | 539 kts | 132° |
| 2026-05-05 14:53 | 29.54483 | 34.66345 | 39712 ft | 527 kts | 143° |
| 2026-05-05 14:53 | 29.51804 | 34.69157 | 39841 ft | 521 kts | 147° |
| 2026-05-05 14:53 | 29.49116 | 34.71971 | 39954 ft | 527 kts | 142° |
| 2026-05-05 14:54 | 29.46711 | 34.75190 | 40077 ft | 536 kts | 133° |
| 2026-05-05 14:54 | 29.44793 | 34.78831 | 40277 ft | 545 kts | 121° |
| 2026-05-05 14:54 | 29.43446 | 34.82934 | 40350 ft | 555 kts | 109° |
| 2026-05-05 14:54 | 29.42632 | 34.87280 | 40458 ft | 559 kts | 104° |
| 2026-05-05 14:55 | 29.41992 | 34.91733 | 40562 ft | 561 kts | 101° |
| 2026-05-05 14:55 | 29.41805 | 34.96159 | 40637 ft | 566 kts | 89° |
| 2026-05-05 14:55 | 29.42281 | 35.00644 | 40698 ft | 568 kts | 77° |
| 2026-05-05 14:55 | 29.43175 | 35.05066 | 40761 ft | 570 kts | 76° |
| 2026-05-05 14:56 | 29.44180 | 35.09466 | 40866 ft | 570 kts | 75° |
| 2026-05-05 14:56 | 29.45233 | 35.13852 | 40973 ft | 570 kts | 74° |
| 2026-05-05 14:56 | 29.47358 | 35.22626 | 41024 ft | 570 kts | 75° |
| 2026-05-05 14:57 | 29.49437 | 35.31404 | 41023 ft | 571 kts | 75° |
| 2026-05-05 14:57 | 29.51493 | 35.40230 | 41033 ft | 572 kts | 75° |
| 2026-05-05 14:58 | 29.53536 | 35.49058 | 41021 ft | 572 kts | 75° |
| 2026-05-05 14:58 | 29.55607 | 35.57866 | 41019 ft | 573 kts | 75° |
| 2026-05-05 14:59 | 29.57713 | 35.66706 | 41012 ft | 574 kts | 75° |
| 2026-05-05 14:59 | 29.59811 | 35.75556 | 40969 ft | 574 kts | 75° |
| 2026-05-05 15:00 | 29.61551 | 35.82965 | 41011 ft | 573 kts | 76° |
| 2026-05-05 15:00 | 29.63376 | 35.93468 | 41006 ft | 573 kts | 81° |
| 2026-05-05 15:01 | 29.64681 | 36.02432 | 40997 ft | 573 kts | 81° |
| 2026-05-05 15:01 | 29.66067 | 36.11449 | 40993 ft | 573 kts | 80° |
| 2026-05-05 15:02 | 29.67512 | 36.20456 | 40989 ft | 573 kts | 80° |
| 2026-05-05 15:02 | 29.68969 | 36.29459 | 40989 ft | 573 kts | 81° |
| 2026-05-05 15:03 | 29.70416 | 36.38451 | 40988 ft | 572 kts | 81° |
| 2026-05-05 15:03 | 29.71872 | 36.47448 | 40989 ft | 572 kts | 80° |
| 2026-05-05 15:04 | 29.73333 | 36.56445 | 40977 ft | 572 kts | 81° |
| 2026-05-05 15:04 | 29.74643 | 36.65467 | 40979 ft | 570 kts | 88° |
| 2026-05-05 15:05 | 29.74047 | 36.74434 | 40983 ft | 559 kts | 105° |
| 2026-05-05 15:05 | 29.73275 | 36.78815 | 40982 ft | 559 kts | 108° |
| 2026-05-05 15:06 | 29.71530 | 36.87537 | 40973 ft | 560 kts | 109° |
| 2026-05-05 15:06 | 29.69733 | 36.96247 | 40995 ft | 561 kts | 108° |
| 2026-05-05 15:07 | 29.67958 | 37.04982 | 40986 ft | 561 kts | 108° |
| 2026-05-05 15:07 | 29.66196 | 37.13732 | 40986 ft | 562 kts | 108° |
| 2026-05-05 15:08 | 29.64431 | 37.22489 | 40986 ft | 562 kts | 108° |
| 2026-05-05 15:08 | 29.62659 | 37.31246 | 40979 ft | 563 kts | 108° |
| 2026-05-05 15:09 | 29.60881 | 37.39997 | 40972 ft | 563 kts | 109° |
| 2026-05-05 15:09 | 29.59093 | 37.48758 | 40950 ft | 563 kts | 109° |
| 2026-05-05 15:10 | 29.57303 | 37.57508 | 40968 ft | 562 kts | 109° |
| 2026-05-05 15:10 | 29.55510 | 37.66229 | 40969 ft | 561 kts | 109° |
| 2026-05-05 15:11 | 29.53710 | 37.74956 | 40952 ft | 561 kts | 109° |
| 2026-05-05 15:11 | 29.51910 | 37.83663 | 40960 ft | 559 kts | 109° |
| 2026-05-05 15:12 | 29.50108 | 37.92340 | 40963 ft | 559 kts | 109° |
| 2026-05-05 15:12 | 29.48303 | 38.01015 | 40961 ft | 558 kts | 109° |
| 2026-05-05 15:13 | 29.46708 | 38.09723 | 40973 ft | 557 kts | 107° |
| 2026-05-05 15:13 | 29.45227 | 38.18442 | 40971 ft | 557 kts | 107° |
| 2026-05-05 15:14 | 29.43713 | 38.27162 | 40979 ft | 557 kts | 107° |
| 2026-05-05 15:14 | 29.42163 | 38.35871 | 40982 ft | 557 kts | 108° |
| 2026-05-05 15:15 | 29.40598 | 38.44565 | 40986 ft | 557 kts | 108° |
| 2026-05-05 15:15 | 29.39027 | 38.53266 | 41030 ft | 557 kts | 107° |
| 2026-05-05 15:16 | 29.37451 | 38.61964 | 40993 ft | 557 kts | 107° |
| 2026-05-05 15:16 | 29.35873 | 38.70653 | 40995 ft | 557 kts | 108° |
| 2026-05-05 15:17 | 29.34288 | 38.79344 | 41008 ft | 557 kts | 108° |
| 2026-05-05 15:17 | 29.32698 | 38.88028 | 41012 ft | 557 kts | 108° |
| 2026-05-05 15:18 | 29.31047 | 38.96679 | 41018 ft | 555 kts | 110° |
| 2026-05-05 15:18 | 29.29217 | 39.05269 | 41022 ft | 554 kts | 110° |
| 2026-05-05 15:19 | 29.27373 | 39.13840 | 41015 ft | 554 kts | 110° |
| 2026-05-05 15:19 | 29.25546 | 39.22436 | 41029 ft | 556 kts | 110° |
| 2026-05-05 15:20 | 29.23725 | 39.31059 | 41024 ft | 557 kts | 110° |
| 2026-05-05 15:20 | 29.21904 | 39.39672 | 41022 ft | 558 kts | 110° |
| 2026-05-05 15:21 | 29.20068 | 39.48314 | 41030 ft | 559 kts | 110° |
| 2026-05-05 15:21 | 29.18226 | 39.56956 | 41024 ft | 559 kts | 110° |
| 2026-05-05 15:22 | 29.16378 | 39.65599 | 41024 ft | 559 kts | 110° |
| 2026-05-05 15:22 | 29.14527 | 39.74222 | 41026 ft | 558 kts | 110° |
| 2026-05-05 15:23 | 29.12669 | 39.82848 | 41004 ft | 558 kts | 111° |
| 2026-05-05 15:23 | 29.10811 | 39.91449 | 41025 ft | 557 kts | 111° |
| 2026-05-05 15:24 | 29.09263 | 40.00223 | 41030 ft | 561 kts | 106° |
| 2026-05-05 15:24 | 29.07990 | 40.09034 | 41037 ft | 561 kts | 105° |
| 2026-05-05 15:25 | 29.06680 | 40.17809 | 41021 ft | 560 kts | 106° |
| 2026-05-05 15:25 | 29.05313 | 40.26502 | 41011 ft | 559 kts | 107° |
| 2026-05-05 15:26 | 29.03913 | 40.35222 | 41029 ft | 557 kts | 107° |
| 2026-05-05 15:26 | 29.02505 | 40.43932 | 41028 ft | 557 kts | 107° |
| 2026-05-05 15:27 | 29.01098 | 40.52628 | 41022 ft | 557 kts | 107° |
| 2026-05-05 15:27 | 28.99919 | 40.59902 | 41029 ft | 556 kts | 107° |
| 2026-05-05 15:28 | 28.98504 | 40.68589 | 41024 ft | 556 kts | 107° |
| 2026-05-05 15:28 | 28.97091 | 40.77265 | 41026 ft | 556 kts | 107° |
| 2026-05-05 15:29 | 28.95662 | 40.85946 | 41021 ft | 556 kts | 108° |
| 2026-05-05 15:29 | 28.94229 | 40.94616 | 41010 ft | 556 kts | 108° |
| 2026-05-05 15:30 | 28.92790 | 41.03304 | 41011 ft | 557 kts | 108° |
| 2026-05-05 15:30 | 28.91336 | 41.12044 | 41013 ft | 557 kts | 108° |
| 2026-05-05 15:31 | 28.89883 | 41.20745 | 41010 ft | 559 kts | 108° |
| 2026-05-05 15:31 | 28.88419 | 41.29469 | 41001 ft | 560 kts | 108° |
| 2026-05-05 15:32 | 28.86951 | 41.38197 | 40998 ft | 561 kts | 108° |
| 2026-05-05 15:32 | 28.85472 | 41.46947 | 40994 ft | 562 kts | 108° |
| 2026-05-05 15:33 | 28.83992 | 41.55700 | 40987 ft | 562 kts | 108° |
| 2026-05-05 15:33 | 28.82496 | 41.64464 | 40986 ft | 563 kts | 108° |
| 2026-05-05 15:34 | 28.80996 | 41.73213 | 40979 ft | 562 kts | 108° |
| 2026-05-05 15:34 | 28.79491 | 41.81965 | 40971 ft | 562 kts | 108° |
| 2026-05-05 15:35 | 28.77987 | 41.90695 | 40973 ft | 561 kts | 108° |
| 2026-05-05 15:35 | 28.76465 | 41.99483 | 40941 ft | 561 kts | 108° |
| 2026-05-05 15:36 | 28.74950 | 42.08191 | 40967 ft | 560 kts | 108° |
| 2026-05-05 15:36 | 28.73440 | 42.16838 | 40962 ft | 560 kts | 108° |
| 2026-05-05 15:37 | 28.71907 | 42.25586 | 40961 ft | 559 kts | 108° |
| 2026-05-05 15:37 | 28.70378 | 42.34272 | 40962 ft | 559 kts | 108° |
| 2026-05-05 15:38 | 28.68846 | 42.42942 | 40954 ft | 558 kts | 108° |
| 2026-05-05 15:38 | 28.67309 | 42.51611 | 40954 ft | 558 kts | 108° |
| 2026-05-05 15:39 | 28.65768 | 42.60264 | 40949 ft | 558 kts | 109° |
| 2026-05-05 15:39 | 28.63810 | 42.68713 | 40945 ft | 542 kts | 122° |
| 2026-05-05 15:40 | 28.60550 | 42.76348 | 40944 ft | 534 kts | 127° |
| 2026-05-05 15:40 | 28.57059 | 42.83792 | 40944 ft | 533 kts | 128° |
| 2026-05-05 15:41 | 28.53538 | 42.91207 | 40942 ft | 533 kts | 128° |
| 2026-05-05 15:41 | 28.50026 | 42.98642 | 40938 ft | 533 kts | 127° |
| 2026-05-05 15:42 | 28.46527 | 43.06076 | 40931 ft | 533 kts | 127° |
| 2026-05-05 15:42 | 28.43033 | 43.13497 | 40933 ft | 533 kts | 127° |
| 2026-05-05 15:43 | 28.39508 | 43.20967 | 40927 ft | 532 kts | 127° |
| 2026-05-05 15:43 | 28.36008 | 43.28369 | 40926 ft | 532 kts | 128° |
| 2026-05-05 15:44 | 28.32504 | 43.35765 | 40926 ft | 532 kts | 128° |
| 2026-05-05 15:44 | 28.28997 | 43.43154 | 40897 ft | 532 kts | 128° |
| 2026-05-05 15:45 | 28.25488 | 43.50533 | 40918 ft | 531 kts | 128° |
| 2026-05-05 15:45 | 28.21974 | 43.57912 | 40914 ft | 531 kts | 128° |
| 2026-05-05 15:46 | 28.18461 | 43.65275 | 40916 ft | 531 kts | 128° |
| 2026-05-05 15:46 | 28.14911 | 43.72620 | 40910 ft | 531 kts | 128° |
| 2026-05-05 15:47 | 28.11350 | 43.79948 | 40906 ft | 531 kts | 128° |
| 2026-05-05 15:47 | 28.07787 | 43.87279 | 40887 ft | 531 kts | 128° |
| 2026-05-05 15:48 | 28.04222 | 43.94613 | 40901 ft | 531 kts | 128° |
| 2026-05-05 15:48 | 28.00660 | 44.01932 | 40895 ft | 531 kts | 128° |
| 2026-05-05 15:49 | 27.97090 | 44.09254 | 40896 ft | 531 kts | 128° |
| 2026-05-05 15:49 | 27.93524 | 44.16563 | 40892 ft | 531 kts | 128° |
| 2026-05-05 15:50 | 27.89994 | 44.23914 | 40876 ft | 532 kts | 127° |
| 2026-05-05 15:50 | 27.86480 | 44.31268 | 40887 ft | 532 kts | 127° |
| 2026-05-05 15:51 | 27.82952 | 44.38621 | 40884 ft | 532 kts | 128° |
| 2026-05-05 15:51 | 27.79421 | 44.45954 | 40870 ft | 532 kts | 128° |
| 2026-05-05 15:52 | 27.75882 | 44.53285 | 40878 ft | 531 kts | 128° |
| 2026-05-05 15:52 | 27.72342 | 44.60607 | 40876 ft | 531 kts | 128° |
| 2026-05-05 15:53 | 27.68803 | 44.67914 | 40882 ft | 531 kts | 128° |
| 2026-05-05 15:53 | 27.65383 | 44.75317 | 40879 ft | 539 kts | 121° |
| 2026-05-05 15:54 | 27.63288 | 44.83561 | 40856 ft | 551 kts | 110° |
| 2026-05-05 15:54 | 27.61709 | 44.92042 | 40868 ft | 554 kts | 108° |
| 2026-05-05 15:55 | 27.60197 | 45.00563 | 40862 ft | 554 kts | 108° |
| 2026-05-05 15:55 | 27.58657 | 45.09069 | 40845 ft | 553 kts | 109° |
| 2026-05-05 15:56 | 27.57092 | 45.17548 | 40861 ft | 553 kts | 109° |
| 2026-05-05 15:56 | 27.55512 | 45.26037 | 40854 ft | 554 kts | 109° |
| 2026-05-05 15:57 | 27.53921 | 45.34536 | 40844 ft | 554 kts | 109° |
| 2026-05-05 15:57 | 27.52324 | 45.43034 | 40850 ft | 554 kts | 109° |
| 2026-05-05 15:58 | 27.50723 | 45.51532 | 40846 ft | 555 kts | 109° |
| 2026-05-05 15:58 | 27.49114 | 45.60045 | 40847 ft | 556 kts | 109° |
| 2026-05-05 15:59 | 27.47501 | 45.68552 | 40840 ft | 556 kts | 109° |
| 2026-05-05 15:59 | 27.45880 | 45.77070 | 40830 ft | 556 kts | 109° |
| 2026-05-05 16:00 | 27.44254 | 45.85587 | 40830 ft | 556 kts | 109° |
| 2026-05-05 16:00 | 27.42622 | 45.94107 | 40828 ft | 557 kts | 109° |
| 2026-05-05 16:01 | 27.41262 | 46.01183 | 40829 ft | 557 kts | 109° |
| 2026-05-05 16:01 | 27.39619 | 46.09699 | 40808 ft | 557 kts | 109° |
| 2026-05-05 16:02 | 27.37974 | 46.18201 | 40818 ft | 556 kts | 109° |
| 2026-05-05 16:02 | 27.36325 | 46.26699 | 40812 ft | 556 kts | 109° |
| 2026-05-05 16:03 | 27.34686 | 46.35199 | 40809 ft | 556 kts | 108° |
| 2026-05-05 16:03 | 27.33197 | 46.43746 | 40786 ft | 557 kts | 107° |
| 2026-05-05 16:04 | 27.31743 | 46.52293 | 40801 ft | 556 kts | 107° |
| 2026-05-05 16:04 | 27.30264 | 46.60810 | 40804 ft | 555 kts | 107° |
| 2026-05-05 16:05 | 27.28762 | 46.69329 | 40802 ft | 555 kts | 107° |
| 2026-05-05 16:05 | 27.27251 | 46.77841 | 40800 ft | 555 kts | 107° |
| 2026-05-05 16:06 | 27.25736 | 46.86353 | 40800 ft | 555 kts | 107° |
| 2026-05-05 16:06 | 27.24217 | 46.94857 | 40799 ft | 555 kts | 107° |
| 2026-05-05 16:07 | 27.22696 | 47.03348 | 40794 ft | 555 kts | 107° |
| 2026-05-05 16:07 | 27.21166 | 47.11853 | 40786 ft | 555 kts | 107° |
| 2026-05-05 16:08 | 27.19631 | 47.20361 | 40787 ft | 556 kts | 107° |
| 2026-05-05 16:08 | 27.18089 | 47.28873 | 40783 ft | 556 kts | 107° |
| 2026-05-05 16:09 | 27.16545 | 47.37365 | 40780 ft | 555 kts | 107° |
| 2026-05-05 16:09 | 27.14996 | 47.45856 | 40776 ft | 555 kts | 107° |
| 2026-05-05 16:10 | 27.13443 | 47.54341 | 40774 ft | 555 kts | 107° |
| 2026-05-05 16:10 | 27.11883 | 47.62819 | 40743 ft | 554 kts | 108° |
| 2026-05-05 16:11 | 27.10310 | 47.71281 | 40766 ft | 553 kts | 108° |
| 2026-05-05 16:12 | 27.07161 | 47.88151 | 40758 ft | 553 kts | 108° |
| 2026-05-05 16:13 | 27.02889 | 48.09121 | 40746 ft | 549 kts | 111° |
| 2026-05-05 16:13 | 27.00979 | 48.17403 | 40744 ft | 549 kts | 110° |
| 2026-05-05 16:14 | 26.97241 | 48.33977 | 40733 ft | 546 kts | 110° |
| 2026-05-05 16:15 | 26.93539 | 48.50460 | 40735 ft | 545 kts | 109° |
| 2026-05-05 16:16 | 26.89824 | 48.66884 | 40700 ft | 543 kts | 109° |
| 2026-05-05 16:17 | 26.87107 | 48.79140 | 40722 ft | 540 kts | 107° |
| 2026-05-05 16:18 | 26.84935 | 48.91534 | 40719 ft | 541 kts | 105° |
| 2026-05-05 16:19 | 26.82750 | 49.03929 | 40720 ft | 541 kts | 106° |
| 2026-05-05 16:19 | 26.80494 | 49.16262 | 40719 ft | 543 kts | 107° |
| 2026-05-05 16:20 | 26.77442 | 49.32819 | 40730 ft | 542 kts | 107° |
| 2026-05-05 16:22 | 26.72090 | 49.52952 | 40719 ft | 540 kts | 115° |
| 2026-05-05 16:23 | 26.67284 | 49.68906 | 40695 ft | 541 kts | 114° |
| 2026-05-05 16:23 | 26.63694 | 49.80860 | 40696 ft | 540 kts | 114° |
| 2026-05-05 16:24 | 26.61298 | 49.88825 | 40696 ft | 541 kts | 114° |
| 2026-05-05 16:25 | 26.57689 | 50.00752 | 40686 ft | 540 kts | 114° |
| 2026-05-05 16:25 | 26.54074 | 50.12633 | 40726 ft | 538 kts | 114° |
| 2026-05-05 16:26 | 26.49262 | 50.28435 | 40730 ft | 537 kts | 114° |
| 2026-05-05 16:27 | 26.46852 | 50.36326 | 40743 ft | 537 kts | 114° |
| 2026-05-05 16:27 | 26.44515 | 50.44244 | 40754 ft | 537 kts | 112° |
| 2026-05-05 16:28 | 26.42318 | 50.52214 | 40762 ft | 538 kts | 112° |
| 2026-05-05 16:28 | 26.40119 | 50.60190 | 40762 ft | 538 kts | 112° |
| 2026-05-05 16:29 | 26.37888 | 50.68149 | 40777 ft | 538 kts | 112° |
| 2026-05-05 16:29 | 26.35624 | 50.76104 | 40767 ft | 538 kts | 112° |
| 2026-05-05 16:30 | 26.33353 | 50.84051 | 40772 ft | 538 kts | 112° |
| 2026-05-05 16:30 | 26.31064 | 50.91995 | 40767 ft | 537 kts | 114° |
| 2026-05-05 16:31 | 26.27909 | 50.99448 | 40773 ft | 530 kts | 124° |
| 2026-05-05 16:31 | 26.24355 | 51.06631 | 40775 ft | 529 kts | 125° |
| 2026-05-05 16:32 | 26.20734 | 51.13761 | 40767 ft | 528 kts | 125° |
| 2026-05-05 16:32 | 26.17128 | 51.20884 | 40775 ft | 528 kts | 125° |
| 2026-05-05 16:33 | 26.13528 | 51.28015 | 40775 ft | 528 kts | 125° |
| 2026-05-05 16:33 | 26.09930 | 51.35136 | 40770 ft | 528 kts | 125° |
| 2026-05-05 16:34 | 26.06330 | 51.42259 | 40772 ft | 528 kts | 125° |
| 2026-05-05 16:34 | 26.02372 | 51.49022 | 40243 ft | 513 kts | 137° |
| 2026-05-05 16:35 | 25.99874 | 51.51798 | 39422 ft | 505 kts | 148° |
| 2026-05-05 16:35 | 25.97043 | 51.54023 | 38430 ft | 492 kts | 158° |
| 2026-05-05 16:35 | 25.93974 | 51.55618 | 36954 ft | 482 kts | 169° |
| 2026-05-05 16:35 | 25.90764 | 51.56647 | 35479 ft | 481 kts | 173° |
| 2026-05-05 16:36 | 25.87508 | 51.57566 | 34020 ft | 485 kts | 172° |
| 2026-05-05 16:36 | 25.84224 | 51.58492 | 32385 ft | 490 kts | 172° |
| 2026-05-05 16:36 | 25.80903 | 51.59440 | 30700 ft | 496 kts | 172° |
| 2026-05-05 16:36 | 25.77559 | 51.60402 | 29060 ft | 499 kts | 171° |
| 2026-05-05 16:37 | 25.74205 | 51.61373 | 27570 ft | 496 kts | 170° |
| 2026-05-05 16:37 | 25.70892 | 51.62336 | 26335 ft | 488 kts | 169° |
| 2026-05-05 16:37 | 25.67638 | 51.63282 | 25192 ft | 479 kts | 169° |
| 2026-05-05 16:37 | 25.64446 | 51.64208 | 24099 ft | 470 kts | 168° |
| 2026-05-05 16:38 | 25.61311 | 51.65117 | 22933 ft | 461 kts | 168° |
| 2026-05-05 16:38 | 25.58229 | 51.66010 | 21756 ft | 452 kts | 167° |
| 2026-05-05 16:38 | 25.55365 | 51.66841 | 21222 ft | 430 kts | 167° |
| 2026-05-05 16:38 | 25.52545 | 51.67659 | 20755 ft | 408 kts | 167° |
| 2026-05-05 16:39 | 25.49872 | 51.68434 | 20350 ft | 387 kts | 167° |
| 2026-05-05 16:39 | 25.47333 | 51.69168 | 19957 ft | 368 kts | 167° |
| 2026-05-05 16:39 | 25.44892 | 51.69873 | 19363 ft | 358 kts | 167° |
| 2026-05-05 16:39 | 25.42501 | 51.70562 | 18645 ft | 353 kts | 167° |
| 2026-05-05 16:40 | 25.40134 | 51.71243 | 17888 ft | 350 kts | 166° |
| 2026-05-05 16:40 | 25.37791 | 51.71919 | 17055 ft | 347 kts | 166° |
| 2026-05-05 16:40 | 25.35466 | 51.72589 | 16238 ft | 344 kts | 166° |
| 2026-05-05 16:40 | 25.33176 | 51.73250 | 15464 ft | 342 kts | 166° |
| 2026-05-05 16:41 | 25.31151 | 51.73833 | 14764 ft | 340 kts | 166° |
| 2026-05-05 16:41 | 25.28876 | 51.74489 | 14002 ft | 337 kts | 166° |
| 2026-05-05 16:41 | 25.26606 | 51.75143 | 13237 ft | 335 kts | 166° |
| 2026-05-05 16:41 | 25.25091 | 51.75580 | 12702 ft | 333 kts | 166° |
| 2026-05-05 16:42 | 25.22864 | 51.76221 | 11957 ft | 329 kts | 166° |
| 2026-05-05 16:42 | 25.20662 | 51.76856 | 11214 ft | 326 kts | 166° |
| 2026-05-05 16:42 | 25.18480 | 51.77484 | 10496 ft | 322 kts | 166° |
| 2026-05-05 16:42 | 25.16324 | 51.78104 | 9800 ft | 319 kts | 166° |
| 2026-05-05 16:43 | 25.14191 | 51.78718 | 9057 ft | 315 kts | 166° |
| 2026-05-05 16:43 | 25.12094 | 51.79373 | 8311 ft | 311 kts | 160° |
| 2026-05-05 16:43 | 25.10217 | 51.80509 | 7618 ft | 306 kts | 147° |
| 2026-05-05 16:43 | 25.08324 | 51.81546 | 6977 ft | 301 kts | 160° |
| 2026-05-05 16:44 | 25.06372 | 51.82261 | 6518 ft | 290 kts | 163° |
| 2026-05-05 16:44 | 25.04474 | 51.82894 | 6048 ft | 280 kts | 163° |
| 2026-05-05 16:44 | 25.02590 | 51.83134 | 5593 ft | 269 kts | 188° |
| 2026-05-05 16:44 | 25.00876 | 51.82453 | 5126 ft | 259 kts | 217° |
| 2026-05-05 16:45 | 24.99731 | 51.81006 | 4866 ft | 247 kts | 247° |
| 2026-05-05 16:45 | 24.99380 | 51.79218 | 4705 ft | 236 kts | 273° |
| 2026-05-05 16:45 | 24.99499 | 51.77446 | 4549 ft | 228 kts | 279° |
| 2026-05-05 16:45 | 24.99757 | 51.75769 | 4424 ft | 215 kts | 285° |
| 2026-05-05 16:46 | 25.00095 | 51.74212 | 4274 ft | 203 kts | 286° |
| 2026-05-05 16:46 | 25.00452 | 51.72730 | 4107 ft | 199 kts | 290° |
| 2026-05-05 16:46 | 25.01285 | 51.71557 | 3955 ft | 195 kts | 324° |
| 2026-05-05 16:46 | 25.02441 | 51.70798 | 3782 ft | 193 kts | 336° |
| 2026-05-05 16:47 | 25.03670 | 51.70214 | 3620 ft | 193 kts | 339° |
| 2026-05-05 16:47 | 25.04914 | 51.69659 | 3454 ft | 193 kts | 340° |
| 2026-05-05 16:47 | 25.06161 | 51.69111 | 3295 ft | 193 kts | 340° |
| 2026-05-05 16:47 | 25.07408 | 51.68558 | 3147 ft | 193 kts | 340° |
| 2026-05-05 16:48 | 25.08653 | 51.68001 | 2974 ft | 193 kts | 340° |
| 2026-05-05 16:48 | 25.09896 | 51.67447 | 2805 ft | 193 kts | 340° |
| 2026-05-05 16:48 | 25.11124 | 51.66901 | 2642 ft | 186 kts | 340° |
| 2026-05-05 16:48 | 25.12302 | 51.66380 | 2517 ft | 173 kts | 340° |
| 2026-05-05 16:49 | 25.13404 | 51.65893 | 2408 ft | 170 kts | 340° |
| 2026-05-05 16:49 | 25.14500 | 51.65414 | 2203 ft | 169 kts | 340° |
| 2026-05-05 16:49 | 25.15592 | 51.64932 | 1996 ft | 167 kts | 340° |
| 2026-05-05 16:49 | 25.16635 | 51.64470 | 1770 ft | 156 kts | 341° |
| 2026-05-05 16:50 | 25.17609 | 51.64041 | 1597 ft | 146 kts | 340° |
| 2026-05-05 16:50 | 25.18532 | 51.63633 | 1415 ft | 142 kts | 340° |
| 2026-05-05 16:50 | 25.19451 | 51.63228 | 1242 ft | 142 kts | 340° |
| 2026-05-05 16:50 | 25.20368 | 51.62823 | 1067 ft | 142 kts | 340° |
| 2026-05-05 16:51 | 25.21286 | 51.62418 | 885 ft | 142 kts | 340° |
| 2026-05-05 16:51 | 25.22205 | 51.62012 | 732 ft | 143 kts | 340° |
| 2026-05-05 16:51 | 25.23129 | 51.61613 | 565 ft | 142 kts | 341° |
| 2026-05-05 16:51 | 25.24037 | 51.61212 | 387 ft | 141 kts | 339° |
| 2026-05-05 16:52 | 25.24934 | 51.60807 | 215 ft | 137 kts | 339° |
| 2026-05-05 16:52 | 25.25814 | 51.60415 | 43 ft | 134 kts | 340° |
| 2026-05-05 16:52 | 25.26597 | 51.60075 | 31 ft | 95 kts | 339° |
| 2026-05-05 16:52 | 25.26984 | 51.59904 | 31 ft | 29 kts | 338° |
| 2026-05-05 16:53 | 25.27147 | 51.59841 | 32 ft | 24 kts | 346° |
| 2026-05-05 16:53 | 25.27309 | 51.59824 | 32 ft | 23 kts | 2° |
| 2026-05-05 16:53 | 25.27422 | 51.59866 | 34 ft | 15 kts | 60° |
| 2026-05-05 16:53 | 25.27381 | 51.59947 | 35 ft | 13 kts | 166° |
| 2026-05-05 16:54 | 25.27272 | 51.59983 | 35 ft | 20 kts | 160° |
| 2026-05-05 16:54 | 25.27139 | 51.60041 | 35 ft | 22 kts | 158° |
| 2026-05-05 16:54 | 25.26988 | 51.60108 | 34 ft | 24 kts | 158° |
| 2026-05-05 16:54 | 25.26826 | 51.60179 | 34 ft | 26 kts | 158° |
| 2026-05-05 16:55 | 25.26653 | 51.60255 | 35 ft | 28 kts | 158° |
| 2026-05-05 16:55 | 25.26469 | 51.60336 | 35 ft | 29 kts | 159° |
| 2026-05-05 16:55 | 25.26285 | 51.60417 | 36 ft | 28 kts | 158° |
| 2026-05-05 16:55 | 25.26112 | 51.60493 | 35 ft | 20 kts | 158° |
| 2026-05-05 16:56 | 25.26054 | 51.60544 | 36 ft | 11 kts | 117° |
| 2026-05-05 16:56 | 25.26073 | 51.60634 | 36 ft | 14 kts | 68° |
| 2026-05-05 16:56 | 25.26114 | 51.60741 | 36 ft | 17 kts | 67° |
| 2026-05-05 16:56 | 25.26161 | 51.60868 | 36 ft | 19 kts | 68° |
| 2026-05-05 16:57 | 25.26205 | 51.60991 | 36 ft | 10 kts | 71° |
| 2026-05-05 16:57 | 25.26177 | 51.61031 | 36 ft | 7 kts | 151° |
| 2026-05-05 16:57 | 25.26130 | 51.61054 | 36 ft | 6 kts | 159° |
| 2026-05-05 16:57 | 25.26122 | 51.61057 | 36 ft | 0 kts | 159° |